createdAt,value
2023-01-09T00:00:41.108Z,8.49
2023-01-09T00:01:41.038Z,8.55
2023-01-09T00:02:41.110Z,8.51
2023-01-09T00:03:41.127Z,8.52
2023-01-09T00:04:41.023Z,8.56
2023-01-09T00:05:41.039Z,8.53
2023-01-09T00:06:41.361Z,8.49
2023-01-09T00:07:41.011Z,8.48
2023-01-09T00:08:41.005Z,8.45
2023-01-09T00:09:41.002Z,8.45
2023-01-09T00:10:41.000Z,8.42
2023-01-09T00:11:40.990Z,8.45
2023-01-09T00:12:40.987Z,8.36
2023-01-09T00:13:40.982Z,8.36
2023-01-09T00:14:40.984Z,8.31
2023-01-09T00:15:40.980Z,8.31
2023-01-09T00:16:40.979Z,8.26
2023-01-09T00:17:40.966Z,8.27
2023-01-09T00:18:40.967Z,8.24
2023-01-09T00:19:40.960Z,8.26
2023-01-09T00:20:40.961Z,8.20
2023-01-09T00:21:40.979Z,8.20
2023-01-09T00:22:40.952Z,8.20
2023-01-09T00:23:40.949Z,8.16
2023-01-09T00:24:40.944Z,8.15
2023-01-09T00:25:42.504Z,8.15
2023-01-09T00:26:40.927Z,8.16
2023-01-09T00:27:40.925Z,8.16
2023-01-09T00:28:40.935Z,8.19
2023-01-09T00:29:40.917Z,8.18
2023-01-09T00:30:40.940Z,8.10
2023-01-09T00:31:40.910Z,8.06
2023-01-09T00:32:40.908Z,8.01
2023-01-09T00:33:40.901Z,8.03
2023-01-09T00:34:40.892Z,8.13
2023-01-09T00:35:40.901Z,8.03
2023-01-09T00:36:40.888Z,8.10
2023-01-09T00:37:44.057Z,8.05
2023-01-09T00:38:40.884Z,8.08
2023-01-09T00:39:40.873Z,8.08
2023-01-09T00:40:40.870Z,8.01
2023-01-09T00:41:40.869Z,7.95
2023-01-09T00:42:40.863Z,8.03
2023-01-09T00:43:40.866Z,7.90
2023-01-09T00:44:40.855Z,7.91
2023-01-09T00:45:40.902Z,7.91
2023-01-09T00:46:40.849Z,7.94
2023-01-09T00:47:40.856Z,7.94
2023-01-09T00:48:40.837Z,7.88
2023-01-09T00:49:40.832Z,7.91
2023-01-09T00:50:40.837Z,7.91
2023-01-09T00:51:40.832Z,7.90
2023-01-09T00:52:40.821Z,7.87
2023-01-09T00:53:40.840Z,7.90
2023-01-09T00:54:40.808Z,7.87
2023-01-09T00:55:40.807Z,7.79
2023-01-09T00:56:40.822Z,7.80
2023-01-09T00:57:40.804Z,7.87
2023-01-09T00:58:40.796Z,7.85
2023-01-09T00:59:40.794Z,7.91
2023-01-09T01:00:40.786Z,7.90
2023-01-09T01:01:41.050Z,7.93
2023-01-09T01:02:40.812Z,7.93
2023-01-09T01:03:40.782Z,7.88
2023-01-09T01:04:40.782Z,7.94
2023-01-09T01:05:40.790Z,7.95
2023-01-09T01:06:40.762Z,7.93
2023-01-09T01:07:40.753Z,7.88
2023-01-09T01:08:40.770Z,7.97
2023-01-09T01:09:40.763Z,7.90
2023-01-09T01:10:40.746Z,7.93
2023-01-09T01:11:40.789Z,7.90
2023-01-09T01:12:40.736Z,7.87
2023-01-09T01:13:40.792Z,7.93
2023-01-09T01:14:40.786Z,7.91
2023-01-09T01:15:40.775Z,7.91
2023-01-09T01:16:41.024Z,7.79
2023-01-09T01:17:40.723Z,7.79
2023-01-09T01:18:40.711Z,7.79
2023-01-09T01:19:40.706Z,7.73
2023-01-09T01:20:40.701Z,7.70
2023-01-09T01:21:40.703Z,7.72
2023-01-09T01:22:40.692Z,7.60
2023-01-09T01:23:40.703Z,7.63
2023-01-09T01:24:40.687Z,7.67
2023-01-09T01:25:40.707Z,7.61
2023-01-09T01:26:40.680Z,7.61
2023-01-09T01:27:40.672Z,7.66
2023-01-09T01:28:40.670Z,7.57
2023-01-09T01:29:40.667Z,7.60
2023-01-09T01:30:40.727Z,7.66
2023-01-09T01:31:40.653Z,7.60
2023-01-09T01:32:40.654Z,7.61
2023-01-09T01:33:40.649Z,7.58
2023-01-09T01:34:40.640Z,7.69
2023-01-09T01:35:40.639Z,7.70
2023-01-09T01:36:40.632Z,7.66
2023-01-09T01:37:40.639Z,7.53
2023-01-09T01:38:40.625Z,7.57
2023-01-09T01:39:40.621Z,7.58
2023-01-09T01:40:40.625Z,7.57
2023-01-09T01:41:40.732Z,7.56
2023-01-09T01:42:40.612Z,7.51
2023-01-09T01:43:40.613Z,7.50
2023-01-09T01:44:40.599Z,7.48
2023-01-09T01:45:40.707Z,7.60
2023-01-09T01:46:40.591Z,7.66
2023-01-09T01:47:40.591Z,7.63
2023-01-09T01:48:40.596Z,7.56
2023-01-09T01:49:40.582Z,7.67
2023-01-09T01:50:40.586Z,7.72
2023-01-09T01:51:40.575Z,7.70
2023-01-09T01:52:40.567Z,7.72
2023-01-09T01:53:40.576Z,7.79
2023-01-09T01:54:40.557Z,7.75
2023-01-09T01:55:40.558Z,7.77
2023-01-09T01:56:40.555Z,7.80
2023-01-09T01:57:40.568Z,7.72
2023-01-09T01:58:40.541Z,7.77
2023-01-09T01:59:40.538Z,7.75
2023-01-09T02:00:40.532Z,7.87
2023-01-09T02:01:40.649Z,7.85
2023-01-09T02:02:40.600Z,7.79
2023-01-09T02:03:40.522Z,7.69
2023-01-09T02:04:40.530Z,7.73
2023-01-09T02:05:40.509Z,7.80
2023-01-09T02:06:40.505Z,7.79
2023-01-09T02:07:40.505Z,7.83
2023-01-09T02:08:40.510Z,7.83
2023-01-09T02:09:40.495Z,7.77
2023-01-09T02:10:40.494Z,7.80
2023-01-09T02:11:40.486Z,7.77
2023-01-09T02:12:40.481Z,7.76
2023-01-09T02:13:40.554Z,7.75
2023-01-09T02:14:40.477Z,7.79
2023-01-09T02:15:40.506Z,7.79
2023-01-09T02:16:40.469Z,7.80
2023-01-09T02:17:40.459Z,7.79
2023-01-09T02:18:40.454Z,7.82
2023-01-09T02:19:40.451Z,7.77
2023-01-09T02:20:40.445Z,7.76
2023-01-09T02:21:40.447Z,7.76
2023-01-09T02:22:40.444Z,7.79
2023-01-09T02:23:40.439Z,7.73
2023-01-09T02:24:40.434Z,7.75
2023-01-09T02:25:40.427Z,7.75
2023-01-09T02:26:40.424Z,7.76
2023-01-09T02:27:40.420Z,7.79
2023-01-09T02:28:40.414Z,7.73
2023-01-09T02:29:40.429Z,7.77
2023-01-09T02:30:40.419Z,7.77
2023-01-09T02:31:40.509Z,7.77
2023-01-09T02:32:40.399Z,7.76
2023-01-09T02:33:40.398Z,7.80
2023-01-09T02:34:40.390Z,7.73
2023-01-09T02:35:40.385Z,7.79
2023-01-09T02:36:40.379Z,7.95
2023-01-09T02:37:40.377Z,7.93
2023-01-09T02:38:40.371Z,7.90
2023-01-09T02:39:40.369Z,7.91
2023-01-09T02:40:40.361Z,7.87
2023-01-09T02:41:40.363Z,7.93
2023-01-09T02:42:40.354Z,7.95
2023-01-09T02:43:40.353Z,7.94
2023-01-09T02:44:40.360Z,7.90
2023-01-09T02:45:40.421Z,7.94
2023-01-09T02:46:40.340Z,7.93
2023-01-09T02:47:40.339Z,7.97
2023-01-09T02:48:40.332Z,7.91
2023-01-09T02:49:40.328Z,7.91
2023-01-09T02:50:40.325Z,8.01
2023-01-09T02:51:40.321Z,7.94
2023-01-09T02:52:40.315Z,7.97
2023-01-09T02:53:40.311Z,7.88
2023-01-09T02:54:40.306Z,7.93
2023-01-09T02:55:40.304Z,7.97
2023-01-09T02:56:40.322Z,7.98
2023-01-09T02:57:40.293Z,7.95
2023-01-09T02:58:40.289Z,7.93
2023-01-09T02:59:40.288Z,7.93
2023-01-09T03:00:40.284Z,8.01
2023-01-09T03:01:40.400Z,7.93
2023-01-09T03:02:40.333Z,7.90
2023-01-09T03:03:40.271Z,7.91
2023-01-09T03:04:40.263Z,7.94
2023-01-09T03:05:40.267Z,8.00
2023-01-09T03:06:40.252Z,7.95
2023-01-09T03:07:40.252Z,7.90
2023-01-09T03:08:40.244Z,7.91
2023-01-09T03:09:40.243Z,7.87
2023-01-09T03:10:40.238Z,7.98
2023-01-09T03:11:40.536Z,7.95
2023-01-09T03:12:40.237Z,7.98
2023-01-09T03:13:40.229Z,7.90
2023-01-09T03:14:40.219Z,7.91
2023-01-09T03:15:40.232Z,7.95
2023-01-09T03:16:40.246Z,7.93
2023-01-09T03:17:40.251Z,7.90
2023-01-09T03:18:40.209Z,7.90
2023-01-09T03:19:40.201Z,7.97
2023-01-09T03:20:40.194Z,7.91
2023-01-09T03:21:40.194Z,7.94
2023-01-09T03:22:40.198Z,7.93
2023-01-09T03:23:40.185Z,7.94
2023-01-09T03:24:40.180Z,7.97
2023-01-09T03:25:40.180Z,7.97
2023-01-09T03:26:40.169Z,7.95
2023-01-09T03:27:40.169Z,7.93
2023-01-09T03:28:40.169Z,7.93
2023-01-09T03:29:40.158Z,7.93
2023-01-09T03:30:40.152Z,8.01
2023-01-09T03:31:40.194Z,8.00
2023-01-09T03:32:40.150Z,7.95
2023-01-09T03:33:40.161Z,7.93
2023-01-09T03:34:40.140Z,7.98
2023-01-09T03:35:40.134Z,7.94
2023-01-09T03:36:40.131Z,7.94
2023-01-09T03:37:40.125Z,7.93
2023-01-09T03:38:40.119Z,7.91
2023-01-09T03:39:40.118Z,7.93
2023-01-09T03:40:40.110Z,7.98
2023-01-09T03:41:40.108Z,7.95
2023-01-09T03:42:40.107Z,7.93
2023-01-09T03:43:40.102Z,7.91
2023-01-09T03:44:40.094Z,7.91
2023-01-09T03:45:40.136Z,7.90
2023-01-09T03:46:40.094Z,7.90
2023-01-09T03:47:40.087Z,7.90
2023-01-09T03:48:40.088Z,7.83
2023-01-09T03:49:40.100Z,7.80
2023-01-09T03:50:40.079Z,7.85
2023-01-09T03:51:40.076Z,7.79
2023-01-09T03:52:40.061Z,7.82
2023-01-09T03:53:40.068Z,7.82
2023-01-09T03:54:40.052Z,7.82
2023-01-09T03:55:40.049Z,7.77
2023-01-09T03:56:40.044Z,7.76
2023-01-09T03:57:40.040Z,7.73
2023-01-09T03:58:40.038Z,7.77
2023-01-09T03:59:40.029Z,7.70
2023-01-09T04:00:40.032Z,7.76
2023-01-09T04:01:40.174Z,7.79
2023-01-09T04:02:40.029Z,7.79
2023-01-09T04:03:40.074Z,7.70
2023-01-09T04:04:40.014Z,7.76
2023-01-09T04:05:40.033Z,7.69
2023-01-09T04:06:40.011Z,7.69
2023-01-09T04:07:40.001Z,7.75
2023-01-09T04:08:39.995Z,7.72
2023-01-09T04:09:39.991Z,7.73
2023-01-09T04:10:39.988Z,7.72
2023-01-09T04:11:39.978Z,7.73
2023-01-09T04:12:39.979Z,7.72
2023-01-09T04:13:39.970Z,7.69
2023-01-09T04:14:39.974Z,7.58
2023-01-09T04:15:39.971Z,7.63
2023-01-09T04:16:40.051Z,7.66
2023-01-09T04:17:39.959Z,7.58
2023-01-09T04:18:39.946Z,7.67
2023-01-09T04:19:39.951Z,7.57
2023-01-09T04:20:39.941Z,7.66
2023-01-09T04:21:39.963Z,7.66
2023-01-09T04:22:39.938Z,7.57
2023-01-09T04:23:39.980Z,7.50
2023-01-09T04:24:39.928Z,7.51
2023-01-09T04:25:39.919Z,7.48
2023-01-09T04:26:39.918Z,7.47
2023-01-09T04:27:39.913Z,7.42
2023-01-09T04:28:40.006Z,7.32
2023-01-09T04:29:39.905Z,7.38
2023-01-09T04:30:39.915Z,7.38
2023-01-09T04:31:40.047Z,7.25
2023-01-09T04:32:39.889Z,7.24
2023-01-09T04:33:40.038Z,7.17
2023-01-09T04:34:39.877Z,7.15
2023-01-09T04:35:39.880Z,7.20
2023-01-09T04:36:39.870Z,7.18
2023-01-09T04:37:39.888Z,7.17
2023-01-09T04:38:40.063Z,7.18
2023-01-09T04:39:39.858Z,7.17
2023-01-09T04:40:39.867Z,7.17
2023-01-09T04:41:39.847Z,7.21
2023-01-09T04:42:39.860Z,7.14
2023-01-09T04:43:39.842Z,7.18
2023-01-09T04:44:39.862Z,7.20
2023-01-09T04:45:39.868Z,7.23
2023-01-09T04:46:39.828Z,7.17
2023-01-09T04:47:39.829Z,7.18
2023-01-09T04:48:39.818Z,7.21
2023-01-09T04:49:39.816Z,7.20
2023-01-09T04:50:39.816Z,7.17
2023-01-09T04:51:39.804Z,7.15
2023-01-09T04:52:39.807Z,7.17
2023-01-09T04:53:39.818Z,7.17
2023-01-09T04:54:39.790Z,7.15
2023-01-09T04:55:39.787Z,7.17
2023-01-09T04:56:39.783Z,7.17
2023-01-09T04:57:39.779Z,7.20
2023-01-09T04:58:39.775Z,7.14
2023-01-09T04:59:39.781Z,7.18
2023-01-09T05:00:39.772Z,7.03
2023-01-09T05:01:39.891Z,7.17
2023-01-09T05:02:39.757Z,7.07
2023-01-09T05:03:39.755Z,7.14
2023-01-09T05:04:39.924Z,7.07
2023-01-09T05:05:39.743Z,7.07
2023-01-09T05:06:39.743Z,7.07
2023-01-09T05:07:39.738Z,7.06
2023-01-09T05:08:39.733Z,7.07
2023-01-09T05:09:39.755Z,7.06
2023-01-09T05:10:39.721Z,7.03
2023-01-09T05:11:39.727Z,7.05
2023-01-09T05:12:39.785Z,7.02
2023-01-09T05:13:39.714Z,7.17
2023-01-09T05:14:39.702Z,7.17
2023-01-09T05:15:39.704Z,7.20
2023-01-09T05:16:39.801Z,7.11
2023-01-09T05:17:39.697Z,7.15
2023-01-09T05:18:39.693Z,7.11
2023-01-09T05:19:39.690Z,7.15
2023-01-09T05:20:39.674Z,7.10
2023-01-09T05:21:39.671Z,7.11
2023-01-09T05:22:39.676Z,7.13
2023-01-09T05:23:39.672Z,7.02
2023-01-09T05:24:39.657Z,7.05
2023-01-09T05:25:39.681Z,7.05
2023-01-09T05:26:39.657Z,7.10
2023-01-09T05:27:39.643Z,7.05
2023-01-09T05:28:39.646Z,7.05
2023-01-09T05:29:39.631Z,7.15
2023-01-09T05:30:39.627Z,7.17
2023-01-09T05:31:39.657Z,7.18
2023-01-09T05:32:39.616Z,7.21
2023-01-09T05:33:39.614Z,7.21
2023-01-09T05:34:39.613Z,7.15
2023-01-09T05:35:39.605Z,7.17
2023-01-09T05:36:39.666Z,7.14
2023-01-09T05:37:39.603Z,7.20
2023-01-09T05:38:39.597Z,7.29
2023-01-09T05:39:39.585Z,7.25
2023-01-09T05:40:40.569Z,7.21
2023-01-09T05:41:39.602Z,7.25
2023-01-09T05:42:39.583Z,7.21
2023-01-09T05:43:39.577Z,7.20
2023-01-09T05:44:39.572Z,7.21
2023-01-09T05:45:39.582Z,7.23
2023-01-09T05:46:39.560Z,7.25
2023-01-09T05:47:39.556Z,7.20
2023-01-09T05:48:39.556Z,7.29
2023-01-09T05:49:39.549Z,7.13
2023-01-09T05:50:39.540Z,7.15
2023-01-09T05:51:39.535Z,7.18
2023-01-09T05:52:39.527Z,7.17
2023-01-09T05:53:39.538Z,7.17
2023-01-09T05:54:39.520Z,7.20
2023-01-09T05:55:39.516Z,7.20
2023-01-09T05:56:39.519Z,7.20
2023-01-09T05:57:39.539Z,7.15
2023-01-09T05:58:39.507Z,7.21
2023-01-09T05:59:39.506Z,7.17
2023-01-09T06:00:39.502Z,7.20
2023-01-09T06:01:39.490Z,7.18
2023-01-09T06:02:39.627Z,7.10
2023-01-09T06:03:39.491Z,7.14
2023-01-09T06:04:39.497Z,7.06
2023-01-09T06:05:39.484Z,7.02
2023-01-09T06:06:39.474Z,7.02
2023-01-09T06:07:39.473Z,7.05
2023-01-09T06:08:39.461Z,7.03
2023-01-09T06:09:39.452Z,7.03
2023-01-09T06:10:39.450Z,7.05
2023-01-09T06:11:39.444Z,7.02
2023-01-09T06:12:39.447Z,7.07
2023-01-09T06:13:39.454Z,7.03
2023-01-09T06:14:39.435Z,7.05
2023-01-09T06:15:39.519Z,6.93
2023-01-09T06:16:39.436Z,6.97
2023-01-09T06:17:39.431Z,6.96
2023-01-09T06:18:39.413Z,7.02
2023-01-09T06:19:39.405Z,7.05
2023-01-09T06:20:39.403Z,6.89
2023-01-09T06:21:39.402Z,6.87
2023-01-09T06:22:39.397Z,6.93
2023-01-09T06:23:39.394Z,6.88
2023-01-09T06:24:39.392Z,6.89
2023-01-09T06:25:39.380Z,6.84
2023-01-09T06:26:39.375Z,6.96
2023-01-09T06:27:39.372Z,6.84
2023-01-09T06:28:39.371Z,6.82
2023-01-09T06:29:39.384Z,6.81
2023-01-09T06:30:39.371Z,6.84
2023-01-09T06:31:39.352Z,6.82
2023-01-09T06:32:39.352Z,6.82
2023-01-09T06:33:39.345Z,6.72
2023-01-09T06:34:39.355Z,6.77
2023-01-09T06:35:39.685Z,6.78
2023-01-09T06:36:39.329Z,6.75
2023-01-09T06:37:39.324Z,6.81
2023-01-09T06:38:39.324Z,6.81
2023-01-09T06:39:39.316Z,6.85
2023-01-09T06:40:39.327Z,6.82
2023-01-09T06:41:39.324Z,6.89
2023-01-09T06:42:39.346Z,6.81
2023-01-09T06:43:39.311Z,6.88
2023-01-09T06:44:39.293Z,6.92
2023-01-09T06:45:39.312Z,6.89
2023-01-09T06:46:39.285Z,6.88
2023-01-09T06:47:39.290Z,6.95
2023-01-09T06:48:39.321Z,6.99
2023-01-09T06:49:39.270Z,6.95
2023-01-09T06:50:39.278Z,6.89
2023-01-09T06:51:39.262Z,6.92
2023-01-09T06:52:39.309Z,6.92
2023-01-09T06:53:39.251Z,6.88
2023-01-09T06:54:39.248Z,6.89
2023-01-09T06:55:39.250Z,6.93
2023-01-09T06:56:39.240Z,6.87
2023-01-09T06:57:39.238Z,6.93
2023-01-09T06:58:39.229Z,6.89
2023-01-09T06:59:39.228Z,6.82
2023-01-09T07:00:39.220Z,6.87
2023-01-09T07:01:39.373Z,6.89
2023-01-09T07:02:39.214Z,6.93
2023-01-09T07:03:39.204Z,6.88
2023-01-09T07:04:39.201Z,6.92
2023-01-09T07:05:39.201Z,6.84
2023-01-09T07:06:39.210Z,6.92
2023-01-09T07:07:39.185Z,6.84
2023-01-09T07:08:39.183Z,6.89
2023-01-09T07:09:39.182Z,6.81
2023-01-09T07:10:39.179Z,6.97
2023-01-09T07:11:39.166Z,6.88
2023-01-09T07:12:39.164Z,6.92
2023-01-09T07:13:39.156Z,6.92
2023-01-09T07:14:39.159Z,6.87
2023-01-09T07:15:39.235Z,6.95
2023-01-09T07:16:39.148Z,6.93
2023-01-09T07:17:39.159Z,6.85
2023-01-09T07:18:39.137Z,6.92
2023-01-09T07:19:39.129Z,6.88
2023-01-09T07:20:39.126Z,6.92
2023-01-09T07:21:39.119Z,7.00
2023-01-09T07:22:39.118Z,7.00
2023-01-09T07:23:39.110Z,7.03
2023-01-09T07:24:39.107Z,7.05
2023-01-09T07:25:39.107Z,7.06
2023-01-09T07:26:39.157Z,7.10
2023-01-09T07:27:39.105Z,7.05
2023-01-09T07:28:39.095Z,7.03
2023-01-09T07:29:39.083Z,7.03
2023-01-09T07:30:39.099Z,7.07
2023-01-09T07:31:39.123Z,7.03
2023-01-09T07:32:39.074Z,7.11
2023-01-09T07:33:39.088Z,7.03
2023-01-09T07:34:39.062Z,7.05
2023-01-09T07:35:39.144Z,7.11
2023-01-09T07:36:39.054Z,7.06
2023-01-09T07:37:39.045Z,7.10
2023-01-09T07:38:39.043Z,7.07
2023-01-09T07:39:39.039Z,7.06
2023-01-09T07:40:39.034Z,7.03
2023-01-09T07:41:39.031Z,7.03
2023-01-09T07:42:39.039Z,7.07
2023-01-09T07:43:39.044Z,7.06
2023-01-09T07:44:39.023Z,7.03
2023-01-09T07:45:39.019Z,7.03
2023-01-09T07:46:39.080Z,7.06
2023-01-09T07:47:38.997Z,7.07
2023-01-09T07:48:39.005Z,7.18
2023-01-09T07:49:39.120Z,7.15
2023-01-09T07:50:38.988Z,7.02
2023-01-09T07:51:38.985Z,7.13
2023-01-09T07:52:38.974Z,7.18
2023-01-09T07:53:38.971Z,7.13
2023-01-09T07:54:38.966Z,7.17
2023-01-09T07:55:38.960Z,7.21
2023-01-09T07:56:38.960Z,7.24
2023-01-09T07:57:38.956Z,7.14
2023-01-09T07:58:38.962Z,7.20
2023-01-09T07:59:38.941Z,7.07
2023-01-09T08:00:38.952Z,7.18
2023-01-09T08:01:39.025Z,7.21
2023-01-09T08:02:38.964Z,7.06
2023-01-09T08:03:38.933Z,7.15
2023-01-09T08:04:38.920Z,7.13
2023-01-09T08:05:38.933Z,7.13
2023-01-09T08:06:38.912Z,7.17
2023-01-09T08:07:38.904Z,7.21
2023-01-09T08:08:38.909Z,7.23
2023-01-09T08:09:38.895Z,7.14
2023-01-09T08:10:38.893Z,7.17
2023-01-09T08:11:38.889Z,7.10
2023-01-09T08:12:38.882Z,7.17
2023-01-09T08:13:38.876Z,7.13
2023-01-09T08:14:38.874Z,7.21
2023-01-09T08:15:38.888Z,7.23
2023-01-09T08:16:38.863Z,7.20
2023-01-09T08:17:38.858Z,7.15
2023-01-09T08:18:38.865Z,7.24
2023-01-09T08:19:38.858Z,7.17
2023-01-09T08:20:38.860Z,7.18
2023-01-09T08:21:38.867Z,7.15
2023-01-09T08:22:38.845Z,7.17
2023-01-09T08:23:38.830Z,7.25
2023-01-09T08:24:38.829Z,7.21
2023-01-09T08:25:38.825Z,7.18
2023-01-09T08:26:38.820Z,7.15
2023-01-09T08:27:38.817Z,7.15
2023-01-09T08:28:38.820Z,7.18
2023-01-09T08:29:38.803Z,7.21
2023-01-09T08:30:38.801Z,7.20
2023-01-09T08:31:38.849Z,7.20
2023-01-09T08:32:38.811Z,7.17
2023-01-09T08:33:40.536Z,7.20
2023-01-09T08:34:38.840Z,7.21
2023-01-09T08:35:38.774Z,7.23
2023-01-09T08:36:38.773Z,7.21
2023-01-09T08:37:38.992Z,7.21
2023-01-09T08:38:38.766Z,7.20
2023-01-09T08:39:38.757Z,7.21
2023-01-09T08:40:38.765Z,7.23
2023-01-09T08:41:38.748Z,7.28
2023-01-09T08:42:38.749Z,7.39
2023-01-09T08:43:38.763Z,7.42
2023-01-09T08:44:38.740Z,7.38
2023-01-09T08:45:38.733Z,7.39
2023-01-09T08:46:38.757Z,7.32
2023-01-09T08:47:38.721Z,7.36
2023-01-09T08:48:38.718Z,7.36
2023-01-09T08:49:38.749Z,7.38
2023-01-09T08:50:38.710Z,7.39
2023-01-09T08:51:38.703Z,7.38
2023-01-09T08:52:38.700Z,7.48
2023-01-09T08:53:38.717Z,7.48
2023-01-09T08:54:38.709Z,7.48
2023-01-09T08:55:38.710Z,7.51
2023-01-09T08:56:38.694Z,7.47
2023-01-09T08:57:38.684Z,7.47
2023-01-09T08:58:38.677Z,7.56
2023-01-09T08:59:38.672Z,7.51
2023-01-09T09:00:38.667Z,7.51
2023-01-09T09:01:38.691Z,7.51
2023-01-09T09:02:38.717Z,7.51
2023-01-09T09:03:38.653Z,7.54
2023-01-09T09:04:38.647Z,7.51
2023-01-09T09:05:38.648Z,7.63
2023-01-09T09:06:38.640Z,7.57
2023-01-09T09:07:38.631Z,7.61
2023-01-09T09:08:38.627Z,7.66
2023-01-09T09:09:38.638Z,7.66
2023-01-09T09:10:38.623Z,7.63
2023-01-09T09:11:38.658Z,7.67
2023-01-09T09:12:38.614Z,7.58
2023-01-09T09:13:38.612Z,7.75
2023-01-09T09:14:38.604Z,7.70
2023-01-09T09:15:38.656Z,7.67
2023-01-09T09:16:38.595Z,7.72
2023-01-09T09:17:38.589Z,7.73
2023-01-09T09:18:38.585Z,7.70
2023-01-09T09:19:38.580Z,7.69
2023-01-09T09:20:38.587Z,7.73
2023-01-09T09:21:38.572Z,7.69
2023-01-09T09:22:38.565Z,7.72
2023-01-09T09:23:38.561Z,7.76
2023-01-09T09:24:38.558Z,7.73
2023-01-09T09:25:38.749Z,7.75
2023-01-09T09:26:38.547Z,7.70
2023-01-09T09:27:38.545Z,7.75
2023-01-09T09:28:38.542Z,7.79
2023-01-09T09:29:38.532Z,7.73
2023-01-09T09:30:38.528Z,7.75
2023-01-09T09:31:38.560Z,7.73
2023-01-09T09:32:38.518Z,7.79
2023-01-09T09:33:38.514Z,7.76
2023-01-09T09:34:38.512Z,7.85
2023-01-09T09:35:38.509Z,7.85
2023-01-09T09:36:38.566Z,7.93
2023-01-09T09:37:38.699Z,7.91
2023-01-09T09:38:38.498Z,7.91
2023-01-09T09:39:38.490Z,7.91
2023-01-09T09:40:38.493Z,7.94
2023-01-09T09:41:38.495Z,7.97
2023-01-09T09:42:38.480Z,8.01
2023-01-09T09:43:38.471Z,7.97
2023-01-09T09:44:39.503Z,8.00
2023-01-09T09:45:38.469Z,8.05
2023-01-09T09:46:38.510Z,8.10
2023-01-09T09:47:38.451Z,8.10
2023-01-09T09:48:38.453Z,8.10
2023-01-09T09:49:38.444Z,8.16
2023-01-09T09:50:38.444Z,8.18
2023-01-09T09:51:38.435Z,8.15
2023-01-09T09:52:38.436Z,8.24
2023-01-09T09:53:38.431Z,8.26
2023-01-09T09:54:38.434Z,8.26
2023-01-09T09:55:38.426Z,8.19
2023-01-09T09:56:38.413Z,8.19
2023-01-09T09:57:38.442Z,8.20
2023-01-09T09:58:38.403Z,8.19
2023-01-09T09:59:38.399Z,8.23
2023-01-09T10:00:38.395Z,8.27
2023-01-09T10:01:38.403Z,8.26
2023-01-09T10:02:38.457Z,8.23
2023-01-09T10:03:38.476Z,8.31
2023-01-09T10:04:38.380Z,8.33
2023-01-09T10:05:38.371Z,8.34
2023-01-09T10:06:38.372Z,8.33
2023-01-09T10:07:40.498Z,8.33
2023-01-09T10:08:38.366Z,8.30
2023-01-09T10:09:38.357Z,8.37
2023-01-09T10:10:38.355Z,8.34
2023-01-09T10:11:38.348Z,8.34
2023-01-09T10:12:38.342Z,8.38
2023-01-09T10:13:38.361Z,8.36
2023-01-09T10:14:38.336Z,8.33
2023-01-09T10:15:38.704Z,8.36
2023-01-09T10:16:38.328Z,8.34
2023-01-09T10:17:38.336Z,8.38
2023-01-09T10:18:38.317Z,8.34
2023-01-09T10:19:38.315Z,8.36
2023-01-09T10:20:38.304Z,8.42
2023-01-09T10:21:38.307Z,8.31
2023-01-09T10:22:38.298Z,8.38
2023-01-09T10:23:38.298Z,8.36
2023-01-09T10:24:38.289Z,8.48
2023-01-09T10:25:38.284Z,8.33
2023-01-09T10:26:38.276Z,8.44
2023-01-09T10:27:38.277Z,8.33
2023-01-09T10:28:38.276Z,8.44
2023-01-09T10:29:40.903Z,8.42
2023-01-09T10:30:38.272Z,8.41
2023-01-09T10:31:38.313Z,8.42
2023-01-09T10:32:38.258Z,8.52
2023-01-09T10:33:38.250Z,8.49
2023-01-09T10:34:38.249Z,8.49
2023-01-09T10:35:47.315Z,8.46
2023-01-09T10:36:38.258Z,8.45
2023-01-09T10:37:38.475Z,8.52
2023-01-09T10:38:38.229Z,8.49
2023-01-09T10:39:38.225Z,8.53
2023-01-09T10:40:38.220Z,8.52
2023-01-09T10:41:38.216Z,8.56
2023-01-09T10:42:38.210Z,8.56
2023-01-09T10:43:38.209Z,8.55
2023-01-09T10:44:38.203Z,8.55
2023-01-09T10:45:38.280Z,8.58
2023-01-09T10:46:38.239Z,8.60
2023-01-09T10:47:38.195Z,8.63
2023-01-09T10:48:38.205Z,8.61
2023-01-09T10:49:38.176Z,8.60
2023-01-09T10:50:38.173Z,8.51
2023-01-09T10:51:38.172Z,8.51
2023-01-09T10:52:38.174Z,8.60
2023-01-09T10:53:38.160Z,8.52
2023-01-09T10:54:38.162Z,8.51
2023-01-09T10:55:38.152Z,8.46
2023-01-09T10:56:38.151Z,8.52
2023-01-09T10:57:38.152Z,8.52
2023-01-09T10:58:38.143Z,8.56
2023-01-09T10:59:38.145Z,8.51
2023-01-09T11:00:38.138Z,8.52
2023-01-09T11:01:38.153Z,8.55
2023-01-09T11:02:38.202Z,8.55
2023-01-09T11:03:38.198Z,8.53
2023-01-09T11:04:38.119Z,8.53
2023-01-09T11:05:38.119Z,8.56
2023-01-09T11:06:38.104Z,8.52
2023-01-09T11:07:38.105Z,8.55
2023-01-09T11:08:38.097Z,8.53
2023-01-09T11:09:38.109Z,8.53
2023-01-09T11:10:38.091Z,8.51
2023-01-09T11:11:38.100Z,8.52
2023-01-09T11:12:38.076Z,8.52
2023-01-09T11:13:38.091Z,8.56
2023-01-09T11:14:38.068Z,8.56
2023-01-09T11:15:38.068Z,8.55
2023-01-09T11:16:38.072Z,8.60
2023-01-09T11:17:38.077Z,8.48
2023-01-09T11:18:38.052Z,8.58
2023-01-09T11:19:38.044Z,8.55
2023-01-09T11:20:38.042Z,8.55
2023-01-09T11:21:38.100Z,8.56
2023-01-09T11:22:38.031Z,8.58
2023-01-09T11:23:38.045Z,8.52
2023-01-09T11:24:38.027Z,8.52
2023-01-09T11:25:38.036Z,8.53
2023-01-09T11:26:38.020Z,8.53
2023-01-09T11:27:38.013Z,8.58
2023-01-09T11:28:38.005Z,8.52
2023-01-09T11:29:38.004Z,8.51
2023-01-09T11:30:37.996Z,8.56
2023-01-09T11:31:38.089Z,8.55
2023-01-09T11:32:37.990Z,8.69
2023-01-09T11:33:38.011Z,8.63
2023-01-09T11:34:37.983Z,8.61
2023-01-09T11:35:37.980Z,8.66
2023-01-09T11:36:38.001Z,8.61
2023-01-09T11:37:37.973Z,8.69
2023-01-09T11:38:37.965Z,8.67
2023-01-09T11:39:37.964Z,8.67
2023-01-09T11:40:37.953Z,8.70
2023-01-09T11:41:37.951Z,8.71
2023-01-09T11:42:37.947Z,8.73
2023-01-09T11:43:37.948Z,8.71
2023-01-09T11:44:37.937Z,8.79
2023-01-09T11:45:37.933Z,8.71
2023-01-09T11:46:37.983Z,8.73
2023-01-09T11:47:37.925Z,8.76
2023-01-09T11:48:37.923Z,8.79
2023-01-09T11:49:37.942Z,8.81
2023-01-09T11:50:37.910Z,8.82
2023-01-09T11:51:37.930Z,8.81
2023-01-09T11:52:37.945Z,8.79
2023-01-09T11:53:37.898Z,8.79
2023-01-09T11:54:37.901Z,8.85
2023-01-09T11:55:42.569Z,8.81
2023-01-09T11:56:37.885Z,8.78
2023-01-09T11:57:37.882Z,8.76
2023-01-09T11:58:37.878Z,8.78
2023-01-09T11:59:37.876Z,8.81
2023-01-09T12:00:37.872Z,8.87
2023-01-09T12:01:37.896Z,8.79
2023-01-09T12:02:37.864Z,8.71
2023-01-09T12:03:37.862Z,8.70
2023-01-09T12:04:37.860Z,8.74
2023-01-09T12:05:37.893Z,8.70
2023-01-09T12:06:37.846Z,8.73
2023-01-09T12:07:37.849Z,8.67
2023-01-09T12:08:37.832Z,8.73
2023-01-09T12:09:37.852Z,8.70
2023-01-09T12:10:37.824Z,8.67
2023-01-09T12:11:37.821Z,8.67
2023-01-09T12:12:37.816Z,8.61
2023-01-09T12:13:37.814Z,8.63
2023-01-09T12:14:37.813Z,8.66
2023-01-09T12:15:37.806Z,8.63
2023-01-09T12:16:37.903Z,8.58
2023-01-09T12:17:37.805Z,8.64
2023-01-09T12:18:37.788Z,8.55
2023-01-09T12:19:37.818Z,8.49
2023-01-09T12:20:37.780Z,8.60
2023-01-09T12:21:37.821Z,8.58
2023-01-09T12:22:37.773Z,8.58
2023-01-09T12:23:37.769Z,8.60
2023-01-09T12:24:37.764Z,8.56
2023-01-09T12:25:37.782Z,8.53
2023-01-09T12:26:37.755Z,8.56
2023-01-09T12:27:37.753Z,8.53
2023-01-09T12:28:37.761Z,8.52
2023-01-09T12:29:37.744Z,8.58
2023-01-09T12:30:37.740Z,8.56
2023-01-09T12:31:37.842Z,8.60
2023-01-09T12:32:37.740Z,8.52
2023-01-09T12:33:37.721Z,8.53
2023-01-09T12:34:37.737Z,8.52
2023-01-09T12:35:37.722Z,8.55
2023-01-09T12:36:37.735Z,8.53
2023-01-09T12:37:37.723Z,8.48
2023-01-09T12:38:37.701Z,8.53
2023-01-09T12:39:38.485Z,8.69
2023-01-09T12:40:37.699Z,8.55
2023-01-09T12:41:37.691Z,8.55
2023-01-09T12:42:37.838Z,8.56
2023-01-09T12:43:37.681Z,8.53
2023-01-09T12:44:37.675Z,8.55
2023-01-09T12:45:37.778Z,8.58
2023-01-09T12:46:37.681Z,8.53
2023-01-09T12:47:37.670Z,8.52
2023-01-09T12:48:37.658Z,8.51
2023-01-09T12:49:37.660Z,8.51
2023-01-09T12:50:37.647Z,8.52
2023-01-09T12:51:37.644Z,8.49
2023-01-09T12:52:37.639Z,8.52
2023-01-09T12:53:37.671Z,8.51
2023-01-09T12:54:37.640Z,8.51
2023-01-09T12:55:37.633Z,8.58
2023-01-09T12:56:37.628Z,8.52
2023-01-09T12:57:37.623Z,8.51
2023-01-09T12:58:37.613Z,8.51
2023-01-09T12:59:37.613Z,8.51
2023-01-09T13:00:37.603Z,8.52
2023-01-09T13:01:38.941Z,8.49
2023-01-09T13:02:37.597Z,8.51
2023-01-09T13:03:37.598Z,8.51
2023-01-09T13:04:37.584Z,8.56
2023-01-09T13:05:37.585Z,8.60
2023-01-09T13:06:37.588Z,8.52
2023-01-09T13:07:37.574Z,8.53
2023-01-09T13:08:37.577Z,8.56
2023-01-09T13:09:37.599Z,8.53
2023-01-09T13:10:37.564Z,8.56
2023-01-09T13:11:37.556Z,8.53
2023-01-09T13:12:37.555Z,8.56
2023-01-09T13:13:37.553Z,8.52
2023-01-09T13:14:37.545Z,8.60
2023-01-09T13:15:37.540Z,8.55
2023-01-09T13:16:37.621Z,8.52
2023-01-09T13:17:37.536Z,8.49
2023-01-09T13:18:37.525Z,8.51